createdAt,value
2023-03-16T00:00:45.693Z,5.50
2023-03-16T00:03:47.305Z,5.00
2023-03-16T00:06:50.722Z,5.10
2023-03-16T00:09:52.393Z,5.20
2023-03-16T00:12:54.764Z,4.90
2023-03-16T00:15:59.284Z,5.20
2023-03-16T00:19:03.034Z,4.90
2023-03-16T00:22:04.593Z,5.20
2023-03-16T00:25:07.160Z,5.20
2023-03-16T00:28:08.775Z,4.70
2023-03-16T00:31:12.147Z,5.10
2023-03-16T00:34:15.456Z,4.90
2023-03-16T00:37:19.645Z,5.30
2023-03-16T00:40:21.221Z,5.20
2023-03-16T00:43:22.789Z,5.10
2023-03-16T00:46:26.527Z,5.00
2023-03-16T00:49:28.589Z,5.10
2023-03-16T00:52:30.607Z,5.10
2023-03-16T00:55:32.329Z,5.00
2023-03-16T00:58:36.453Z,5.30
2023-03-16T01:01:38.324Z,3.40
2023-03-16T01:04:41.197Z,4.60
2023-03-16T01:07:42.996Z,4.90
2023-03-16T01:10:45.253Z,4.70
2023-03-16T01:13:48.039Z,5.00
2023-03-16T01:16:49.677Z,5.50
2023-03-16T01:19:51.599Z,5.00
2023-03-16T01:22:53.243Z,5.00
2023-03-16T01:25:54.774Z,5.10
2023-03-16T01:28:56.368Z,5.40
2023-03-16T01:31:58.185Z,5.30
2023-03-16T01:35:02.789Z,5.20
2023-03-16T01:38:04.704Z,5.10
2023-03-16T01:41:07.936Z,5.50
2023-03-16T01:44:28.075Z,5.10
2023-03-16T01:47:29.705Z,5.00
2023-03-16T01:50:31.589Z,5.40
2023-03-16T01:53:34.425Z,5.10
2023-03-16T01:56:45.347Z,5.40
2023-03-16T02:00:12.068Z,5.30
2023-03-16T02:03:17.872Z,5.00
2023-03-16T02:06:20.238Z,5.30
2023-03-16T02:09:22.742Z,5.80
2023-03-16T02:12:24.465Z,4.90
2023-03-16T02:15:27.397Z,5.00
2023-03-16T02:18:29.075Z,5.20
2023-03-16T02:21:58.448Z,4.90
2023-03-16T02:24:59.999Z,4.90
2023-03-16T02:28:15.228Z,5.30
2023-03-16T02:31:18.253Z,5.10
2023-03-16T02:34:19.862Z,5.20
2023-03-16T02:37:21.955Z,5.20
2023-03-16T02:40:30.261Z,5.10
2023-03-16T02:43:36.193Z,5.20
2023-03-16T02:46:38.548Z,5.10
2023-03-16T02:49:43.539Z,5.40
2023-03-16T02:52:45.133Z,4.90
2023-03-16T02:55:47.346Z,5.10
2023-03-16T02:58:49.062Z,5.20
2023-03-16T03:01:51.464Z,5.20
2023-03-16T03:04:54.488Z,5.20
2023-03-16T03:07:56.562Z,5.00
2023-03-16T03:10:58.306Z,5.20
2023-03-16T03:14:00.065Z,5.00
2023-03-16T03:17:01.742Z,5.20
2023-03-16T03:20:07.801Z,5.10
2023-03-16T03:23:09.436Z,5.30
2023-03-16T03:26:11.010Z,5.20
2023-03-16T03:29:12.735Z,5.40
2023-03-16T03:32:14.267Z,5.10
2023-03-16T03:35:16.171Z,5.20
2023-03-16T03:38:17.704Z,5.50
2023-03-16T03:41:19.237Z,5.20
2023-03-16T03:44:24.285Z,5.30
2023-03-16T03:47:25.848Z,5.10
2023-03-16T03:50:27.635Z,5.20
2023-03-16T03:53:29.578Z,5.50
2023-03-16T03:56:31.203Z,5.30
2023-03-16T03:59:32.906Z,5.20
2023-03-16T04:02:34.551Z,5.40
2023-03-16T04:05:36.113Z,5.70
2023-03-16T04:08:37.673Z,5.40
2023-03-16T04:11:39.528Z,5.30
2023-03-16T04:14:41.054Z,5.20
2023-03-16T04:17:42.613Z,5.40
2023-03-16T04:20:44.166Z,5.40
2023-03-16T04:23:45.935Z,5.30
2023-03-16T04:26:48.034Z,5.10
2023-03-16T04:29:49.601Z,5.20
2023-03-16T04:32:52.305Z,5.10
2023-03-16T04:35:53.951Z,5.40
2023-03-16T04:38:55.517Z,5.20
2023-03-16T04:41:57.065Z,5.10
2023-03-16T04:44:58.622Z,5.20
2023-03-16T04:48:00.498Z,5.40
2023-03-16T04:51:03.779Z,5.10
2023-03-16T04:54:05.385Z,5.20
2023-03-16T04:57:08.367Z,5.20
2023-03-16T05:00:18.744Z,5.00
2023-03-16T05:03:20.328Z,5.40
2023-03-16T05:06:25.469Z,5.50
2023-03-16T05:09:27.038Z,5.40
2023-03-16T05:12:28.653Z,5.40
2023-03-16T05:15:30.694Z,5.30
2023-03-16T05:18:33.091Z,5.70
2023-03-16T05:21:37.503Z,5.30
2023-03-16T05:24:39.045Z,5.40
2023-03-16T05:27:45.534Z,5.40
2023-03-16T05:30:47.125Z,5.30
2023-03-16T05:33:48.686Z,5.50
2023-03-16T05:36:50.240Z,5.50
2023-03-16T05:39:51.778Z,5.30
2023-03-16T05:42:57.685Z,5.60
2023-03-16T05:45:59.318Z,5.40
2023-03-16T05:49:00.928Z,5.40
2023-03-16T05:52:02.566Z,7.00
2023-03-16T05:55:05.841Z,5.50
2023-03-16T05:58:07.432Z,5.40
2023-03-16T06:01:10.447Z,5.50
2023-03-16T06:04:12.246Z,5.50
2023-03-16T06:07:13.835Z,5.40
2023-03-16T06:10:15.619Z,5.50
2023-03-16T06:13:17.155Z,5.70
2023-03-16T06:16:18.833Z,5.40
2023-03-16T06:19:20.419Z,5.60
2023-03-16T06:22:22.131Z,5.90
2023-03-16T06:25:24.047Z,5.30
2023-03-16T06:28:25.857Z,5.60
2023-03-16T06:31:27.784Z,5.80
2023-03-16T06:34:29.384Z,5.50
2023-03-16T06:37:31.796Z,6.00
2023-03-16T06:40:33.459Z,6.00
2023-03-16T06:43:35.091Z,5.60
2023-03-16T06:46:36.784Z,5.80
2023-03-16T06:49:38.411Z,6.20
2023-03-16T06:52:40.041Z,6.00
2023-03-16T06:55:42.480Z,6.10
2023-03-16T06:58:44.276Z,6.30
2023-03-16T07:01:46.300Z,6.00
2023-03-16T07:04:48.020Z,6.10
2023-03-16T07:07:49.789Z,6.20
2023-03-16T07:10:52.149Z,6.20
2023-03-16T07:13:53.818Z,6.20
2023-03-16T07:16:55.451Z,6.50
2023-03-16T07:19:57.261Z,6.60
2023-03-16T07:22:59.043Z,6.80
2023-03-16T07:26:00.749Z,6.70
2023-03-16T07:29:05.047Z,6.80
2023-03-16T07:32:06.746Z,8.40
2023-03-16T07:35:10.331Z,6.70
2023-03-16T07:38:12.401Z,6.80
2023-03-16T07:41:14.377Z,6.80
2023-03-16T07:44:16.042Z,6.90
2023-03-16T07:47:18.019Z,6.80
2023-03-16T07:50:19.737Z,7.00
2023-03-16T07:53:21.298Z,7.00
2023-03-16T07:56:22.884Z,7.10
2023-03-16T07:59:26.289Z,7.20
2023-03-16T08:02:28.029Z,7.60
2023-03-16T08:05:29.625Z,7.40
2023-03-16T08:08:32.539Z,7.20
2023-03-16T08:11:34.090Z,7.30
2023-03-16T08:14:36.717Z,7.50
2023-03-16T08:17:41.465Z,6.90
2023-03-16T08:20:44.489Z,7.20
2023-03-16T08:23:49.285Z,7.20
2023-03-16T08:26:50.860Z,7.20
2023-03-16T08:29:53.179Z,7.30
2023-03-16T08:32:54.834Z,7.10
2023-03-16T08:35:56.833Z,7.20
2023-03-16T08:39:06.538Z,7.30
2023-03-16T08:42:15.274Z,7.20
2023-03-16T08:45:17.279Z,7.30
2023-03-16T08:48:20.290Z,7.20
2023-03-16T08:51:22.449Z,7.00
2023-03-16T08:54:24.126Z,7.10
2023-03-16T08:57:26.156Z,7.90
2023-03-16T09:00:28.807Z,7.30
2023-03-16T09:03:30.912Z,7.30
2023-03-16T09:06:32.505Z,7.60
2023-03-16T09:09:35.669Z,7.40
2023-03-16T09:12:37.955Z,7.50
2023-03-16T09:15:39.525Z,7.40
2023-03-16T09:18:42.314Z,7.60
2023-03-16T09:21:46.493Z,7.70
2023-03-16T09:24:49.526Z,7.70
2023-03-16T09:27:52.551Z,9.30
2023-03-16T09:30:55.676Z,7.90
2023-03-16T09:33:57.222Z,7.60
2023-03-16T09:36:58.765Z,8.30
2023-03-16T09:40:06.837Z,8.00
2023-03-16T09:43:16.839Z,9.90
2023-03-16T09:46:26.965Z,8.20
2023-03-16T09:49:35.116Z,8.30
2023-03-16T09:52:57.495Z,8.50
2023-03-16T09:56:04.110Z,8.40
2023-03-16T09:59:14.447Z,8.60
2023-03-16T10:02:35.518Z,8.60
2023-03-16T10:05:38.562Z,8.90
2023-03-16T10:08:44.794Z,8.90
2023-03-16T10:11:49.732Z,10.50
2023-03-16T10:15:05.820Z,10.30
2023-03-16T10:18:17.978Z,9.00
2023-03-16T10:21:20.912Z,9.10
2023-03-16T10:24:34.417Z,8.90
2023-03-16T10:27:38.750Z,9.20
2023-03-16T10:30:42.328Z,9.00
2023-03-16T10:33:45.397Z,10.20
2023-03-16T10:36:47.760Z,9.20
2023-03-16T10:39:49.446Z,9.10
2023-03-16T10:42:51.004Z,9.40
2023-03-16T10:46:00.367Z,8.90
2023-03-16T10:49:01.947Z,9.20
2023-03-16T10:52:27.311Z,9.30
2023-03-16T10:55:34.638Z,9.50
2023-03-16T10:58:42.426Z,10.10
2023-03-16T11:01:49.986Z,9.80
2023-03-16T11:04:53.006Z,9.90
2023-03-16T11:08:01.878Z,10.80
2023-03-16T11:11:32.357Z,10.50
2023-03-16T11:14:34.468Z,10.60
2023-03-16T11:17:44.463Z,10.40
2023-03-16T11:20:47.135Z,10.80
2023-03-16T11:23:52.732Z,10.60
2023-03-16T11:26:59.870Z,10.80
2023-03-16T11:30:05.302Z,10.70
2023-03-16T11:33:12.392Z,10.90
2023-03-16T11:36:48.895Z,10.90
2023-03-16T11:40:15.295Z,11.10
2023-03-16T11:43:28.951Z,11.10
2023-03-16T11:46:41.980Z,11.20
2023-03-16T11:49:51.869Z,11.40
2023-03-16T11:53:19.831Z,11.90
2023-03-16T11:56:47.021Z,12.20
2023-03-16T12:00:07.420Z,12.30
2023-03-16T12:03:22.595Z,12.50
2023-03-16T12:06:38.588Z,11.80
2023-03-16T12:10:06.522Z,12.40
2023-03-16T12:13:30.590Z,12.60
2023-03-16T12:16:49.822Z,12.70
2023-03-16T12:20:19.824Z,12.40
2023-03-16T12:23:29.603Z,12.60
2023-03-16T12:26:40.584Z,12.70
2023-03-16T12:29:55.463Z,12.60
2023-03-16T12:33:00.713Z,13.90
2023-03-16T12:36:40.038Z,12.40
2023-03-16T12:39:51.385Z,12.30
2023-03-16T12:43:01.305Z,12.30
2023-03-16T12:46:16.672Z,12.10
2023-03-16T12:49:19.967Z,12.10
2023-03-16T12:52:22.351Z,11.90
2023-03-16T12:55:39.508Z,13.00
2023-03-16T12:58:45.281Z,12.30
2023-03-16T13:01:57.160Z,11.90
2023-03-16T13:05:02.794Z,11.90
2023-03-16T13:08:11.602Z,12.00
2023-03-16T13:11:14.648Z,12.00
2023-03-16T13:14:36.292Z,12.10
2023-03-16T13:17:39.144Z,12.50
2023-03-16T13:20:51.489Z,12.80
2023-03-16T13:24:11.690Z,12.50
2023-03-16T13:27:23.114Z,12.50
2023-03-16T13:30:29.774Z,12.60
2023-03-16T13:33:37.054Z,12.90
2023-03-16T13:36:39.291Z,12.70
2023-03-16T13:39:41.593Z,12.80
2023-03-16T13:42:49.491Z,13.80
2023-03-16T13:45:51.933Z,12.70
2023-03-16T13:48:53.708Z,12.60
2023-03-16T13:51:55.292Z,12.50
2023-03-16T13:55:15.275Z,12.80
2023-03-16T13:58:25.816Z,12.80
2023-03-16T14:01:30.855Z,12.70
2023-03-16T14:04:33.872Z,12.80
2023-03-16T14:07:38.464Z,12.70
2023-03-16T14:10:40.264Z,12.30
2023-03-16T14:13:42.006Z,11.70
2023-03-16T14:16:44.587Z,12.70
2023-03-16T14:19:58.748Z,12.60
2023-03-16T14:23:00.532Z,13.20
2023-03-16T14:26:05.967Z,13.80
2023-03-16T14:29:30.496Z,13.10
2023-03-16T14:32:33.283Z,13.10
2023-03-16T14:35:43.507Z,12.60
2023-03-16T14:38:51.054Z,13.10
2023-03-16T14:41:52.694Z,13.20
2023-03-16T14:44:56.170Z,13.60
2023-03-16T14:48:20.124Z,13.70
2023-03-16T14:51:22.300Z,13.30
2023-03-16T14:54:24.176Z,13.00
2023-03-16T14:57:26.704Z,13.40
2023-03-16T15:00:32.987Z,13.40
2023-03-16T15:03:37.863Z,13.40
2023-03-16T15:06:39.463Z,13.60
2023-03-16T15:09:45.908Z,13.60
2023-03-16T15:12:53.896Z,14.10
2023-03-16T15:15:55.885Z,13.90
2023-03-16T15:18:57.556Z,13.80
2023-03-16T15:22:01.865Z,14.10
2023-03-16T15:25:21.613Z,14.10
2023-03-16T15:28:26.143Z,14.10
2023-03-16T15:31:27.868Z,14.60
2023-03-16T15:34:29.522Z,14.70
2023-03-16T15:37:32.636Z,14.80
2023-03-16T15:40:35.753Z,14.80
2023-03-16T15:43:38.088Z,16.00
2023-03-16T15:46:39.741Z,14.80
2023-03-16T15:49:47.893Z,14.60
2023-03-16T15:52:55.559Z,14.60
2023-03-16T15:56:02.891Z,14.30
2023-03-16T15:59:06.039Z,14.40
2023-03-16T16:02:32.249Z,14.00
2023-03-16T16:05:34.209Z,13.70
2023-03-16T16:08:35.839Z,13.50
2023-03-16T16:11:38.360Z,13.60
2023-03-16T16:14:41.672Z,13.60
2023-03-16T16:17:56.781Z,13.30
2023-03-16T16:21:07.022Z,13.20
2023-03-16T16:24:10.532Z,13.00
2023-03-16T16:27:13.213Z,13.10
2023-03-16T16:30:44.228Z,13.20
2023-03-16T16:33:45.892Z,12.70
2023-03-16T16:36:48.538Z,12.40
2023-03-16T16:39:50.317Z,13.30
2023-03-16T16:42:53.756Z,12.10
2023-03-16T16:45:55.788Z,12.20
2023-03-16T16:49:05.326Z,12.00
2023-03-16T16:52:14.345Z,12.00
2023-03-16T16:55:16.367Z,12.00
2023-03-16T16:58:24.322Z,11.50
2023-03-16T17:01:35.477Z,11.70
2023-03-16T17:04:37.140Z,11.70
2023-03-16T17:07:39.077Z,11.20
2023-03-16T17:10:41.538Z,12.50
2023-03-16T17:13:43.963Z,11.30
2023-03-16T17:16:51.562Z,11.10
2023-03-16T17:19:53.189Z,11.00
2023-03-16T17:22:57.329Z,11.30
2023-03-16T17:26:02.812Z,11.10
2023-03-16T17:29:27.801Z,10.80
2023-03-16T17:32:29.439Z,10.80
2023-03-16T17:35:31.494Z,12.00
2023-03-16T17:38:33.598Z,12.30
2023-03-16T17:41:35.168Z,10.80
2023-03-16T17:44:50.659Z,10.70
2023-03-16T17:47:53.424Z,10.70
2023-03-16T17:50:54.956Z,11.00
2023-03-16T17:53:57.849Z,10.30
2023-03-16T17:56:59.407Z,10.50
2023-03-16T18:00:05.302Z,12.70
2023-03-16T18:03:17.194Z,10.40
2023-03-16T18:06:25.188Z,10.50
2023-03-16T18:09:28.586Z,11.90
2023-03-16T18:12:41.080Z,10.50
2023-03-16T18:15:43.578Z,12.00
2023-03-16T18:18:45.711Z,9.80
2023-03-16T18:21:47.539Z,10.00
2023-03-16T18:24:51.593Z,10.30
2023-03-16T18:27:53.149Z,10.20
2023-03-16T18:30:55.511Z,10.40
2023-03-16T18:34:00.746Z,10.30
2023-03-16T18:37:06.065Z,12.20
2023-03-16T18:40:12.316Z,11.70
2023-03-16T18:43:17.128Z,10.20
2023-03-16T18:46:33.075Z,12.20
2023-03-16T18:49:36.691Z,10.00
2023-03-16T18:52:39.119Z,10.20
2023-03-16T18:55:44.808Z,10.20
2023-03-16T18:58:48.019Z,10.20
2023-03-16T19:01:49.803Z,11.80
2023-03-16T19:04:52.860Z,10.30
2023-03-16T19:07:54.492Z,10.30
2023-03-16T19:11:01.639Z,9.90
2023-03-16T19:14:03.256Z,10.00
2023-03-16T19:17:05.217Z,10.00
2023-03-16T19:20:08.234Z,10.10
2023-03-16T19:23:15.947Z,10.00
2023-03-16T19:26:18.038Z,11.30
2023-03-16T19:29:26.896Z,10.00
2023-03-16T19:32:28.603Z,11.40
2023-03-16T19:35:48.442Z,10.20
2023-03-16T19:38:51.208Z,9.90
2023-03-16T19:41:58.026Z,10.20
2023-03-16T19:45:00.158Z,9.80
2023-03-16T19:48:02.189Z,9.80
2023-03-16T19:51:05.902Z,10.00
2023-03-16T19:54:08.062Z,9.90
2023-03-16T19:57:19.172Z,9.60
2023-03-16T20:00:25.832Z,10.40
2023-03-16T20:03:28.640Z,9.80
2023-03-16T20:06:30.386Z,12.00
2023-03-16T20:09:32.141Z,10.10
2023-03-16T20:12:34.645Z,9.90
2023-03-16T20:15:37.354Z,10.80
2023-03-16T20:18:39.497Z,10.10
2023-03-16T20:21:42.014Z,9.80
2023-03-16T20:24:45.582Z,9.80
2023-03-16T20:27:53.749Z,9.80
2023-03-16T20:30:55.623Z,9.70
2023-03-16T20:33:58.163Z,9.80
2023-03-16T20:37:01.127Z,9.70
2023-03-16T20:40:04.952Z,10.60
2023-03-16T20:43:26.895Z,9.70
2023-03-16T20:46:30.964Z,10.00
2023-03-16T20:49:33.930Z,9.80
2023-03-16T20:52:35.520Z,9.70
2023-03-16T20:55:37.625Z,11.10
2023-03-16T20:58:39.433Z,9.70
2023-03-16T21:01:43.886Z,9.80
2023-03-16T21:04:45.459Z,9.60
2023-03-16T21:07:47.063Z,9.70
2023-03-16T21:10:53.327Z,9.70
2023-03-16T21:13:55.098Z,10.00
2023-03-16T21:16:57.059Z,9.70
2023-03-16T21:19:59.956Z,10.10
2023-03-16T21:23:02.575Z,9.80
2023-03-16T21:26:04.371Z,9.80
2023-03-16T21:29:12.613Z,9.80
2023-03-16T21:32:20.800Z,9.90
2023-03-16T21:35:30.535Z,10.10
2023-03-16T21:38:32.516Z,9.60
2023-03-16T21:41:34.193Z,10.10
2023-03-16T21:44:35.805Z,10.00
2023-03-16T21:47:37.466Z,9.80
2023-03-16T21:50:39.847Z,9.70
2023-03-16T21:53:41.706Z,9.90
2023-03-16T21:56:43.815Z,9.90
2023-03-16T22:07:42.582Z,9.70
2023-03-16T22:11:23.678Z,10.60
2023-03-16T22:18:56.859Z,10.20
2023-03-16T22:22:01.305Z,10.00
2023-03-16T22:25:15.692Z,10.00
2023-03-16T22:28:31.882Z,11.00
2023-03-16T22:34:57.345Z,12.50
2023-03-16T22:38:01.730Z,10.00
2023-03-16T22:41:03.527Z,10.50
2023-03-16T22:44:05.413Z,10.10
2023-03-16T22:47:20.744Z,9.80
2023-03-16T22:50:24.353Z,10.10
2023-03-16T22:53:35.678Z,10.30
2023-03-16T22:56:37.983Z,10.40
2023-03-16T22:59:39.608Z,10.20
2023-03-16T23:02:41.840Z,11.40
2023-03-16T23:05:43.497Z,10.40
2023-03-16T23:08:45.166Z,10.10
2023-03-16T23:11:48.976Z,10.20
2023-03-16T23:14:50.556Z,10.20
2023-03-16T23:17:52.508Z,10.20
2023-03-16T23:21:04.485Z,10.10
2023-03-16T23:24:06.429Z,11.30
2023-03-16T23:27:38.036Z,10.10
2023-03-16T23:30:40.193Z,12.60
2023-03-16T23:33:42.341Z,10.60
2023-03-16T23:36:44.180Z,10.70
2023-03-16T23:39:45.892Z,10.40
2023-03-16T23:42:48.691Z,10.30
2023-03-16T23:45:50.362Z,10.60
2023-03-16T23:48:54.383Z,12.10
2023-03-16T23:51:57.224Z,12.40
2023-03-16T23:54:59.995Z,10.40
2023-03-16T23:58:01.719Z,10.40
